UAL1833 KBOS-KEWR
Flight info
| Callsign | UAL1833 |
|---|---|
| Flight time | 0h 42m |
| Altitude | 16000 |
| Route | PATSS7 PATSS DCT NELIE FLOSI4 |
| Aircraft | A319/M-V/N |
Departure
| Time | 2026-05-05 23:37 |
|---|---|
| Airport | Boston Logan International Airport (KBOS) |
Arrival
| Time | 2026-05-06 00:19 |
|---|---|
| Airport | Newark Liberty International Airport (KEWR) |
| Time | Latitude | Longitude | Altitude | Speed | Heading |
|---|---|---|---|---|---|
| 2026-05-05 23:06 | 42.36196 | -71.01628 | 29 ft | 0 kts | 261° |
| 2026-05-05 23:27 | 42.36197 | -71.01619 | 30 ft | 4 kts | 261° |
| 2026-05-05 23:27 | 42.36201 | -71.01585 | 27 ft | 4 kts | 264° |
| 2026-05-05 23:27 | 42.36202 | -71.01551 | 25 ft | 4 kts | 271° |
| 2026-05-05 23:27 | 42.36199 | -71.01519 | 27 ft | 4 kts | 301° |
| 2026-05-05 23:28 | 42.36189 | -71.01505 | 30 ft | 2 kts | 19° |
| 2026-05-05 23:28 | 42.36188 | -71.01505 | 30 ft | 0 kts | 19° |
| 2026-05-05 23:31 | 42.36193 | -71.01503 | 29 ft | 4 kts | 19° |
| 2026-05-05 23:31 | 42.36236 | -71.01482 | 27 ft | 9 kts | 19° |
| 2026-05-05 23:31 | 42.36302 | -71.01449 | 27 ft | 12 kts | 21° |
| 2026-05-05 23:31 | 42.36362 | -71.01377 | 26 ft | 13 kts | 94° |
| 2026-05-05 23:32 | 42.36420 | -71.01293 | 27 ft | 15 kts | 18° |
| 2026-05-05 23:32 | 42.36525 | -71.01242 | 28 ft | 17 kts | 20° |
| 2026-05-05 23:32 | 42.36645 | -71.01184 | 27 ft | 19 kts | 19° |
| 2026-05-05 23:32 | 42.36761 | -71.01140 | 26 ft | 17 kts | 354° |
| 2026-05-05 23:33 | 42.36850 | -71.01225 | 26 ft | 13 kts | 325° |
| 2026-05-05 23:33 | 42.36930 | -71.01173 | 26 ft | 15 kts | 41° |
| 2026-05-05 23:33 | 42.37019 | -71.01089 | 26 ft | 16 kts | 25° |
| 2026-05-05 23:33 | 42.37127 | -71.01019 | 27 ft | 18 kts | 26° |
| 2026-05-05 23:34 | 42.37246 | -71.00941 | 28 ft | 20 kts | 26° |
| 2026-05-05 23:34 | 42.37378 | -71.00870 | 27 ft | 21 kts | 19° |
| 2026-05-05 23:34 | 42.37521 | -71.00801 | 26 ft | 22 kts | 20° |
| 2026-05-05 23:34 | 42.37671 | -71.00727 | 26 ft | 23 kts | 20° |
| 2026-05-05 23:35 | 42.37800 | -71.00666 | 28 ft | 14 kts | 20° |
| 2026-05-05 23:35 | 42.37829 | -71.00556 | 27 ft | 15 kts | 112° |
| 2026-05-05 23:35 | 42.37747 | -71.00496 | 27 ft | 17 kts | 197° |
| 2026-05-05 23:35 | 42.37729 | -71.00504 | 26 ft | 0 kts | 199° |
| 2026-05-05 23:36 | 42.37691 | -71.00523 | 27 ft | 25 kts | 200° |
| 2026-05-05 23:36 | 42.37337 | -71.00694 | 28 ft | 82 kts | 200° |
| 2026-05-05 23:36 | 42.36626 | -71.01039 | 45 ft | 131 kts | 200° |
| 2026-05-05 23:37 | 42.35811 | -71.01455 | 672 ft | 122 kts | 201° |
| 2026-05-05 23:37 | 42.35019 | -71.01854 | 1273 ft | 120 kts | 199° |
| 2026-05-05 23:37 | 42.34158 | -71.01730 | 1857 ft | 139 kts | 169° |
| 2026-05-05 23:37 | 42.33323 | -71.00724 | 2175 ft | 182 kts | 144° |
| 2026-05-05 23:38 | 42.32477 | -70.99303 | 2495 ft | 207 kts | 142° |
| 2026-05-05 23:38 | 42.31583 | -70.97624 | 3002 ft | 235 kts | 126° |
| 2026-05-05 23:38 | 42.31203 | -70.95371 | 3761 ft | 264 kts | 96° |
| 2026-05-05 23:38 | 42.31497 | -70.92771 | 4231 ft | 294 kts | 82° |
| 2026-05-05 23:39 | 42.31917 | -70.89986 | 4925 ft | 308 kts | 81° |
| 2026-05-05 23:39 | 42.32340 | -70.87160 | 5842 ft | 313 kts | 81° |
| 2026-05-05 23:39 | 42.32713 | -70.84208 | 6807 ft | 315 kts | 89° |
| 2026-05-05 23:39 | 42.32613 | -70.81303 | 7712 ft | 314 kts | 105° |
| 2026-05-05 23:40 | 42.31994 | -70.78498 | 8654 ft | 311 kts | 118° |
| 2026-05-05 23:40 | 42.30946 | -70.75969 | 9572 ft | 307 kts | 133° |
| 2026-05-05 23:40 | 42.29445 | -70.73950 | 10317 ft | 307 kts | 150° |
| 2026-05-05 23:40 | 42.27562 | -70.72633 | 10996 ft | 304 kts | 168° |
| 2026-05-05 23:41 | 42.25506 | -70.72137 | 11796 ft | 299 kts | 185° |
| 2026-05-05 23:41 | 42.23458 | -70.72419 | 12610 ft | 296 kts | 196° |
| 2026-05-05 23:41 | 42.21507 | -70.73235 | 13427 ft | 293 kts | 210° |
| 2026-05-05 23:41 | 42.19842 | -70.74786 | 14158 ft | 291 kts | 227° |
| 2026-05-05 23:42 | 42.18581 | -70.76980 | 14535 ft | 307 kts | 243° |
| 2026-05-05 23:42 | 42.17881 | -70.79791 | 14667 ft | 329 kts | 259° |
| 2026-05-05 23:42 | 42.17478 | -70.82921 | 14826 ft | 348 kts | 259° |
| 2026-05-05 23:42 | 42.17049 | -70.86173 | 15276 ft | 356 kts | 259° |
| 2026-05-05 23:43 | 42.16602 | -70.89475 | 15830 ft | 360 kts | 258° |
| 2026-05-05 23:43 | 42.16146 | -70.92798 | 16001 ft | 361 kts | 258° |
| 2026-05-05 23:43 | 42.15712 | -70.96197 | 16044 ft | 378 kts | 260° |
| 2026-05-05 23:43 | 42.15349 | -70.99780 | 16041 ft | 392 kts | 262° |
| 2026-05-05 23:44 | 42.15038 | -71.03450 | 16042 ft | 396 kts | 263° |
| 2026-05-05 23:44 | 42.14747 | -71.07141 | 16048 ft | 397 kts | 263° |
| 2026-05-05 23:44 | 42.14455 | -71.10838 | 16047 ft | 397 kts | 262° |
| 2026-05-05 23:44 | 42.14149 | -71.14535 | 16045 ft | 397 kts | 262° |
| 2026-05-05 23:45 | 42.13827 | -71.18225 | 16043 ft | 397 kts | 262° |
| 2026-05-05 23:45 | 42.13493 | -71.21916 | 16041 ft | 397 kts | 262° |
| 2026-05-05 23:45 | 42.13154 | -71.25609 | 16039 ft | 397 kts | 262° |
| 2026-05-05 23:45 | 42.12811 | -71.29297 | 16043 ft | 397 kts | 262° |
| 2026-05-05 23:46 | 42.12468 | -71.32987 | 16048 ft | 397 kts | 262° |
| 2026-05-05 23:46 | 42.12131 | -71.36679 | 16051 ft | 397 kts | 262° |
| 2026-05-05 23:46 | 42.11793 | -71.40368 | 16053 ft | 397 kts | 262° |
| 2026-05-05 23:46 | 42.11453 | -71.44055 | 16054 ft | 397 kts | 262° |
| 2026-05-05 23:47 | 42.11108 | -71.47741 | 16045 ft | 396 kts | 262° |
| 2026-05-05 23:47 | 42.10759 | -71.51424 | 16045 ft | 396 kts | 262° |
| 2026-05-05 23:47 | 42.10410 | -71.55107 | 16045 ft | 397 kts | 262° |
| 2026-05-05 23:47 | 42.10063 | -71.58791 | 16053 ft | 397 kts | 262° |
| 2026-05-05 23:48 | 42.09717 | -71.62476 | 16052 ft | 397 kts | 262° |
| 2026-05-05 23:48 | 42.09368 | -71.66167 | 16054 ft | 397 kts | 262° |
| 2026-05-05 23:48 | 42.09018 | -71.69855 | 16053 ft | 397 kts | 262° |
| 2026-05-05 23:48 | 42.08626 | -71.73528 | 16051 ft | 397 kts | 259° |
| 2026-05-05 23:49 | 42.08136 | -71.77188 | 16049 ft | 397 kts | 258° |
| 2026-05-05 23:49 | 42.07584 | -71.80823 | 16045 ft | 397 kts | 257° |
| 2026-05-05 23:49 | 42.07005 | -71.84453 | 16039 ft | 397 kts | 257° |
| 2026-05-05 23:49 | 42.06427 | -71.88082 | 16037 ft | 397 kts | 257° |
| 2026-05-05 23:50 | 42.05863 | -71.91712 | 16057 ft | 396 kts | 258° |
| 2026-05-05 23:50 | 42.05314 | -71.95347 | 16054 ft | 397 kts | 258° |
| 2026-05-05 23:50 | 42.04771 | -71.98984 | 16042 ft | 397 kts | 258° |
| 2026-05-05 23:50 | 42.04226 | -72.02626 | 16040 ft | 397 kts | 258° |
| 2026-05-05 23:51 | 42.03684 | -72.06262 | 16042 ft | 397 kts | 258° |
| 2026-05-05 23:51 | 42.03138 | -72.09900 | 16043 ft | 397 kts | 258° |
| 2026-05-05 23:51 | 42.02590 | -72.13540 | 16033 ft | 397 kts | 258° |
| 2026-05-05 23:51 | 42.02040 | -72.17177 | 16021 ft | 397 kts | 257° |
| 2026-05-05 23:52 | 42.01487 | -72.20819 | 16018 ft | 397 kts | 258° |
| 2026-05-05 23:52 | 42.00937 | -72.24452 | 16019 ft | 397 kts | 258° |
| 2026-05-05 23:52 | 42.00384 | -72.28089 | 16015 ft | 397 kts | 258° |
| 2026-05-05 23:52 | 41.99834 | -72.31725 | 16014 ft | 397 kts | 258° |
| 2026-05-05 23:53 | 41.99470 | -72.34129 | 16013 ft | 396 kts | 258° |
| 2026-05-05 23:53 | 41.98917 | -72.37758 | 16010 ft | 396 kts | 258° |
| 2026-05-05 23:53 | 41.98361 | -72.41386 | 16003 ft | 396 kts | 258° |
| 2026-05-05 23:53 | 41.97614 | -72.46238 | 16003 ft | 396 kts | 258° |
| 2026-05-05 23:54 | 41.97243 | -72.48640 | 16003 ft | 396 kts | 258° |
| 2026-05-05 23:54 | 41.96682 | -72.52265 | 16002 ft | 396 kts | 258° |
| 2026-05-05 23:54 | 41.96120 | -72.55889 | 16002 ft | 396 kts | 258° |
| 2026-05-05 23:54 | 41.95554 | -72.59514 | 16001 ft | 396 kts | 258° |
| 2026-05-05 23:55 | 41.94987 | -72.63138 | 16007 ft | 397 kts | 258° |
| 2026-05-05 23:55 | 41.94421 | -72.66773 | 15996 ft | 397 kts | 258° |
| 2026-05-05 23:55 | 41.93745 | -72.70366 | 15988 ft | 398 kts | 252° |
| 2026-05-05 23:55 | 41.92900 | -72.73908 | 16025 ft | 398 kts | 252° |
| 2026-05-05 23:56 | 41.92057 | -72.77444 | 16024 ft | 398 kts | 252° |
| 2026-05-05 23:56 | 41.91212 | -72.80990 | 15993 ft | 398 kts | 252° |
| 2026-05-05 23:56 | 41.90367 | -72.84532 | 16005 ft | 399 kts | 252° |
| 2026-05-05 23:56 | 41.89522 | -72.88076 | 16002 ft | 399 kts | 252° |
| 2026-05-05 23:57 | 41.88675 | -72.91620 | 16006 ft | 399 kts | 252° |
| 2026-05-05 23:57 | 41.87825 | -72.95163 | 16022 ft | 399 kts | 252° |
| 2026-05-05 23:57 | 41.86974 | -72.98706 | 16015 ft | 399 kts | 252° |
| 2026-05-05 23:57 | 41.86124 | -73.02245 | 16009 ft | 399 kts | 252° |
| 2026-05-05 23:58 | 41.85272 | -73.05784 | 16003 ft | 399 kts | 252° |
| 2026-05-05 23:58 | 41.84418 | -73.09321 | 16000 ft | 398 kts | 252° |
| 2026-05-05 23:58 | 41.83563 | -73.12852 | 15991 ft | 398 kts | 252° |
| 2026-05-05 23:58 | 41.82707 | -73.16383 | 15990 ft | 398 kts | 252° |
| 2026-05-05 23:59 | 41.81853 | -73.19914 | 15978 ft | 398 kts | 252° |
| 2026-05-05 23:59 | 41.80997 | -73.23446 | 15978 ft | 398 kts | 252° |
| 2026-05-05 23:59 | 41.80139 | -73.26979 | 15969 ft | 398 kts | 252° |
| 2026-05-05 23:59 | 41.79280 | -73.30511 | 16003 ft | 398 kts | 252° |
| 2026-05-06 00:00 | 41.78421 | -73.34035 | 15996 ft | 398 kts | 252° |
| 2026-05-06 00:00 | 41.77562 | -73.37551 | 15986 ft | 397 kts | 252° |
| 2026-05-06 00:00 | 41.76703 | -73.41062 | 15988 ft | 396 kts | 252° |
| 2026-05-06 00:00 | 41.75845 | -73.44568 | 15989 ft | 396 kts | 252° |
| 2026-05-06 00:01 | 41.74991 | -73.48064 | 15993 ft | 395 kts | 252° |
| 2026-05-06 00:01 | 41.74146 | -73.51517 | 15975 ft | 395 kts | 252° |
| 2026-05-06 00:01 | 41.73288 | -73.55007 | 15978 ft | 395 kts | 252° |
| 2026-05-06 00:01 | 41.72426 | -73.58502 | 15981 ft | 395 kts | 252° |
| 2026-05-06 00:02 | 41.71565 | -73.61990 | 15983 ft | 395 kts | 252° |
| 2026-05-06 00:02 | 41.70703 | -73.65480 | 15992 ft | 395 kts | 252° |
| 2026-05-06 00:02 | 41.69829 | -73.69016 | 15995 ft | 395 kts | 252° |
| 2026-05-06 00:02 | 41.68976 | -73.72451 | 16000 ft | 395 kts | 252° |
| 2026-05-06 00:03 | 41.68111 | -73.75928 | 16005 ft | 394 kts | 252° |
| 2026-05-06 00:03 | 41.67244 | -73.79411 | 16006 ft | 394 kts | 252° |
| 2026-05-06 00:03 | 41.66378 | -73.82893 | 15998 ft | 394 kts | 252° |
| 2026-05-06 00:03 | 41.65530 | -73.86376 | 16006 ft | 394 kts | 252° |
| 2026-05-06 00:04 | 41.64700 | -73.89872 | 16004 ft | 394 kts | 253° |
| 2026-05-06 00:04 | 41.63882 | -73.93370 | 15998 ft | 394 kts | 253° |
| 2026-05-06 00:04 | 41.63066 | -73.96868 | 15995 ft | 394 kts | 253° |
| 2026-05-06 00:04 | 41.62248 | -74.00362 | 16001 ft | 394 kts | 253° |
| 2026-05-06 00:05 | 41.60599 | -74.07338 | 16004 ft | 393 kts | 253° |
| 2026-05-06 00:05 | 41.59769 | -74.10816 | 15995 ft | 393 kts | 252° |
| 2026-05-06 00:05 | 41.58939 | -74.14286 | 16004 ft | 392 kts | 252° |
| 2026-05-06 00:06 | 41.58107 | -74.17757 | 15998 ft | 392 kts | 252° |
| 2026-05-06 00:06 | 41.57274 | -74.21225 | 15967 ft | 392 kts | 252° |
| 2026-05-06 00:06 | 41.56442 | -74.24691 | 15977 ft | 392 kts | 252° |
| 2026-05-06 00:06 | 41.55429 | -74.28063 | 15973 ft | 393 kts | 243° |
| 2026-05-06 00:07 | 41.53888 | -74.31082 | 15970 ft | 396 kts | 231° |
| 2026-05-06 00:07 | 41.51866 | -74.33591 | 15957 ft | 400 kts | 219° |
| 2026-05-06 00:07 | 41.49444 | -74.35454 | 15955 ft | 406 kts | 207° |
| 2026-05-06 00:07 | 41.46763 | -74.36695 | 15992 ft | 409 kts | 202° |
| 2026-05-06 00:08 | 41.44057 | -74.37858 | 15998 ft | 409 kts | 202° |
| 2026-05-06 00:08 | 41.41350 | -74.39019 | 16004 ft | 409 kts | 202° |
| 2026-05-06 00:08 | 41.38645 | -74.40180 | 16010 ft | 408 kts | 202° |
| 2026-05-06 00:08 | 41.35939 | -74.41342 | 15999 ft | 408 kts | 202° |
| 2026-05-06 00:09 | 41.33250 | -74.42493 | 15343 ft | 404 kts | 202° |
| 2026-05-06 00:09 | 41.30571 | -74.43642 | 14374 ft | 404 kts | 202° |
| 2026-05-06 00:09 | 41.27908 | -74.44786 | 13506 ft | 401 kts | 203° |
| 2026-05-06 00:09 | 41.25268 | -74.45917 | 12612 ft | 396 kts | 202° |
| 2026-05-06 00:10 | 41.22664 | -74.47035 | 11800 ft | 390 kts | 202° |
| 2026-05-06 00:10 | 41.20104 | -74.48130 | 11047 ft | 383 kts | 202° |
| 2026-05-06 00:10 | 41.17581 | -74.49205 | 10297 ft | 376 kts | 202° |
| 2026-05-06 00:10 | 41.15151 | -74.50241 | 9992 ft | 370 kts | 202° |
| 2026-05-06 00:11 | 41.12712 | -74.51283 | 9688 ft | 368 kts | 202° |
| 2026-05-06 00:11 | 41.10273 | -74.52092 | 9367 ft | 356 kts | 191° |
| 2026-05-06 00:11 | 41.07833 | -74.51964 | 9056 ft | 350 kts | 174° |
| 2026-05-06 00:11 | 41.05567 | -74.50872 | 8742 ft | 346 kts | 156° |
| 2026-05-06 00:12 | 41.03672 | -74.48944 | 8418 ft | 344 kts | 139° |
| 2026-05-06 00:12 | 41.02134 | -74.46548 | 8141 ft | 336 kts | 135° |
| 2026-05-06 00:12 | 41.00659 | -74.44202 | 7847 ft | 327 kts | 136° |
| 2026-05-06 00:12 | 40.99218 | -74.41927 | 7548 ft | 319 kts | 136° |
| 2026-05-06 00:13 | 40.97805 | -74.39709 | 7257 ft | 312 kts | 136° |
| 2026-05-06 00:13 | 40.96418 | -74.37536 | 6969 ft | 306 kts | 137° |
| 2026-05-06 00:13 | 40.95054 | -74.35403 | 6671 ft | 302 kts | 137° |
| 2026-05-06 00:13 | 40.93707 | -74.33293 | 6365 ft | 298 kts | 137° |
| 2026-05-06 00:14 | 40.92377 | -74.31212 | 6042 ft | 294 kts | 137° |
| 2026-05-06 00:14 | 40.91065 | -74.29159 | 5724 ft | 290 kts | 137° |
| 2026-05-06 00:14 | 40.89767 | -74.27131 | 5373 ft | 287 kts | 137° |
| 2026-05-06 00:14 | 40.88480 | -74.25124 | 5024 ft | 286 kts | 137° |
| 2026-05-06 00:15 | 40.87197 | -74.23124 | 4663 ft | 284 kts | 138° |
| 2026-05-06 00:15 | 40.85945 | -74.21166 | 4328 ft | 274 kts | 138° |
| 2026-05-06 00:15 | 40.84763 | -74.19311 | 4005 ft | 262 kts | 138° |
| 2026-05-06 00:15 | 40.83595 | -74.17482 | 3659 ft | 252 kts | 138° |
| 2026-05-06 00:16 | 40.82479 | -74.15746 | 3297 ft | 244 kts | 139° |
| 2026-05-06 00:16 | 40.81414 | -74.14087 | 2931 ft | 236 kts | 139° |
| 2026-05-06 00:16 | 40.80242 | -74.12692 | 2561 ft | 219 kts | 156° |
| 2026-05-06 00:16 | 40.78881 | -74.11915 | 2183 ft | 203 kts | 173° |
| 2026-05-06 00:17 | 40.77569 | -74.11729 | 1797 ft | 184 kts | 187° |
| 2026-05-06 00:17 | 40.76372 | -74.12010 | 1483 ft | 166 kts | 200° |
| 2026-05-06 00:17 | 40.75370 | -74.12576 | 1224 ft | 148 kts | 207° |
| 2026-05-06 00:17 | 40.74511 | -74.13124 | 1050 ft | 128 kts | 206° |
| 2026-05-06 00:18 | 40.73721 | -74.13627 | 872 ft | 122 kts | 206° |
| 2026-05-06 00:18 | 40.72976 | -74.14103 | 726 ft | 117 kts | 208° |
| 2026-05-06 00:18 | 40.72245 | -74.14571 | 588 ft | 118 kts | 208° |
| 2026-05-06 00:18 | 40.71522 | -74.15030 | 398 ft | 113 kts | 207° |
| 2026-05-06 00:19 | 40.70814 | -74.15483 | 253 ft | 117 kts | 209° |
| 2026-05-06 00:19 | 40.70067 | -74.15955 | 122 ft | 120 kts | 205° |
| 2026-05-06 00:19 | 40.69341 | -74.16420 | 33 ft | 107 kts | 205° |
| 2026-05-06 00:19 | 40.68824 | -74.16749 | 23 ft | 44 kts | 206° |
| 2026-05-06 00:20 | 40.68661 | -74.16852 | 22 ft | 25 kts | 206° |
| 2026-05-06 00:20 | 40.68518 | -74.17030 | 25 ft | 29 kts | 237° |
| 2026-05-06 00:20 | 40.68421 | -74.17213 | 23 ft | 26 kts | 229° |
| 2026-05-06 00:20 | 40.68250 | -74.17332 | 22 ft | 22 kts | 206° |
| 2026-05-06 00:21 | 40.68144 | -74.17418 | 21 ft | 17 kts | 248° |
| 2026-05-06 00:21 | 40.68192 | -74.17573 | 22 ft | 19 kts | 297° |
| 2026-05-06 00:21 | 40.68199 | -74.17688 | 22 ft | 13 kts | 213° |
| 2026-05-06 00:21 | 40.68113 | -74.17741 | 22 ft | 11 kts | 206° |
| 2026-05-06 00:22 | 40.68048 | -74.17797 | 22 ft | 10 kts | 248° |
| 2026-05-06 00:22 | 40.68084 | -74.17893 | 22 ft | 13 kts | 309° |
| 2026-05-06 00:22 | 40.68154 | -74.17983 | 22 ft | 15 kts | 306° |
| 2026-05-06 00:22 | 40.68233 | -74.18053 | 22 ft | 14 kts | 292° |
| 2026-05-06 00:23 | 40.68234 | -74.18169 | 22 ft | 12 kts | 259° |
| 2026-05-06 00:23 | 40.68237 | -74.18282 | 22 ft | 9 kts | 275° |
| 2026-05-06 00:23 | 40.68253 | -74.18349 | 24 ft | 8 kts | 330° |
| 2026-05-06 00:23 | 40.68298 | -74.18349 | 22 ft | 0 kts | 5° |
| 2026-05-06 00:24 | 40.68299 | -74.18349 | 22 ft | 0 kts | 5° |